createdAt,value
2022-10-26T00:01:15.408Z,97690.22
2022-10-26T00:11:18.215Z,97682.28
2022-10-26T00:21:19.685Z,97665.09
2022-10-26T00:31:21.528Z,97686.53
2022-10-26T00:41:29.472Z,97670.84
2022-10-26T00:51:35.238Z,97643.88
2022-10-26T01:01:39.098Z,97661.59
2022-10-26T01:11:40.621Z,97619.81
2022-10-26T01:21:51.544Z,97633.53
2022-10-26T01:32:10.068Z,97650.22
2022-10-26T01:42:13.368Z,97692.88
2022-10-26T01:52:15.371Z,97692.53
2022-10-26T02:03:12.395Z,97665.78
2022-10-26T02:13:20.463Z,97673.19
2022-10-26T02:23:24.985Z,97662.28
2022-10-26T02:33:31.998Z,97652.78
2022-10-26T02:43:39.292Z,97657.81
2022-10-26T02:53:51.812Z,97646.47
2022-10-26T03:03:57.952Z,97660.44
2022-10-26T03:13:59.469Z,97669.22
2022-10-26T03:24:00.979Z,97662.28
2022-10-26T03:34:04.022Z,97659.09
2022-10-26T03:44:05.650Z,97657.88
2022-10-26T03:54:08.261Z,97678.25
2022-10-26T04:04:13.570Z,97685.13
2022-10-26T04:14:15.102Z,97652.72
2022-10-26T04:24:16.577Z,97657.72
2022-10-26T04:34:18.063Z,97664.97
2022-10-26T04:44:19.649Z,97685.59
2022-10-26T04:54:21.484Z,97684.53
2022-10-26T05:04:22.950Z,97702.28
2022-10-26T05:14:24.499Z,97739.44
2022-10-26T05:24:25.974Z,97768.06
2022-10-26T05:34:27.397Z,97781.88
2022-10-26T05:44:28.865Z,97796.44
2022-10-26T05:54:30.342Z,97811.81
2022-10-26T06:04:43.317Z,97775.22
2022-10-26T06:14:45.212Z,97717.38
2022-10-26T06:24:58.771Z,97695.44
2022-10-26T06:35:29.225Z,97727.31
2022-10-26T06:45:31.709Z,97788.84
2022-10-26T06:55:41.378Z,97798.50
2022-10-26T07:05:44.357Z,97780.75
2022-10-26T07:15:46.565Z,97778.50
2022-10-26T07:25:48.057Z,97783.63
2022-10-26T07:35:49.577Z,97808.38
2022-10-26T07:45:51.679Z,97814.66
2022-10-26T07:55:57.611Z,97825.84
2022-10-26T08:06:01.635Z,97818.97
2022-10-26T08:16:04.953Z,97818.09
2022-10-26T08:26:06.477Z,97821.22
2022-10-26T08:36:08.093Z,97834.66
2022-10-26T08:46:15.394Z,97838.91
2022-10-26T08:56:34.913Z,97837.47
2022-10-26T09:06:51.780Z,97845.00
2022-10-26T09:17:08.240Z,97842.25
2022-10-26T09:27:22.113Z,97849.78
2022-10-26T09:37:40.346Z,97856.09
2022-10-26T09:47:49.161Z,97838.56
2022-10-26T09:57:54.329Z,97844.81
2022-10-26T10:08:21.933Z,97846.06
2022-10-26T10:18:24.220Z,97871.13
2022-10-26T10:28:27.421Z,97872.78
2022-10-26T10:38:28.967Z,97873.94
2022-10-26T10:48:31.753Z,97880.44
2022-10-26T10:58:57.109Z,97888.34
2022-10-26T11:09:04.794Z,97896.28
2022-10-26T11:19:18.246Z,97900.28
2022-10-26T11:29:33.825Z,97899.88
2022-10-26T11:39:54.933Z,97897.06
2022-10-26T11:49:59.166Z,97904.66
2022-10-26T12:00:04.331Z,97899.56
2022-10-26T12:10:13.993Z,97906.25
2022-10-26T12:20:55.064Z,97920.66
2022-10-26T12:31:35.002Z,97919.03
2022-10-26T12:41:39.235Z,97931.50
2022-10-26T12:51:43.363Z,97938.00
2022-10-26T13:02:23.974Z,97943.34
2022-10-26T13:12:27.241Z,97938.13
2022-10-26T13:22:29.340Z,97940.41
2022-10-26T13:32:35.602Z,97941.31
2022-10-26T13:42:47.660Z,97949.41
2022-10-26T13:52:53.418Z,97962.91
2022-10-26T14:02:55.528Z,97960.75
2022-10-26T14:12:58.171Z,97974.59
2022-10-26T14:22:59.619Z,97980.31
2022-10-26T14:33:01.115Z,97988.84
2022-10-26T14:43:05.944Z,97994.06
2022-10-26T14:53:15.362Z,97983.31
2022-10-26T15:03:18.245Z,98010.31
2022-10-26T15:13:31.118Z,98020.41
2022-10-26T15:23:32.683Z,98032.44
2022-10-26T15:33:35.254Z,98030.13
2022-10-26T15:43:37.681Z,98033.78
2022-10-26T15:53:39.733Z,98043.84
2022-10-26T16:03:41.202Z,98046.94
2022-10-26T16:13:42.811Z,98058.38
2022-10-26T16:23:49.728Z,98066.47
2022-10-26T16:33:51.238Z,98080.19
2022-10-26T16:43:52.672Z,98078.63
2022-10-26T16:53:56.600Z,98095.53
2022-10-26T17:03:58.170Z,98098.22
2022-10-26T17:13:59.870Z,98119.41
2022-10-26T17:24:02.081Z,98124.13
2022-10-26T17:34:05.876Z,98145.31
2022-10-26T17:44:07.451Z,98167.25
2022-10-26T17:54:09.223Z,98175.03
2022-10-26T18:04:11.712Z,98177.19
2022-10-26T18:14:13.971Z,98184.28
2022-10-26T18:24:15.579Z,98205.00
2022-10-26T18:34:18.538Z,98219.03
2022-10-26T18:44:20.014Z,98227.06
2022-10-26T18:54:21.697Z,98229.59
2022-10-26T19:04:23.156Z,98233.97
2022-10-26T19:14:24.739Z,98250.56
2022-10-26T19:24:26.192Z,98264.19
2022-10-26T19:34:27.653Z,98276.75
2022-10-26T19:44:29.087Z,98282.91
2022-10-26T19:54:30.779Z,98288.22
2022-10-26T20:04:32.214Z,98303.63
2022-10-26T20:14:33.662Z,98299.38
2022-10-26T20:24:35.156Z,98299.66
2022-10-26T20:34:36.740Z,98313.72
2022-10-26T20:44:43.170Z,98317.97
2022-10-26T20:54:53.991Z,98318.19
2022-10-26T21:04:56.098Z,98330.13
2022-10-26T21:14:57.602Z,98342.56
2022-10-26T21:25:00.006Z,98351.53
2022-10-26T21:35:01.544Z,98350.94
2022-10-26T21:45:03.980Z,98346.88
2022-10-26T21:55:05.780Z,98350.88
2022-10-26T22:05:08.327Z,98357.22
2022-10-26T22:15:10.065Z,98366.16
2022-10-26T22:25:11.562Z,98371.66
2022-10-26T22:35:28.657Z,98367.06
2022-10-26T22:45:31.130Z,98368.31
2022-10-26T22:55:34.072Z,98367.72
2022-10-26T23:05:35.615Z,98367.59
2022-10-26T23:15:37.073Z,98375.25
2022-10-26T23:25:38.520Z,98390.44
2022-10-26T23:35:40.405Z,98395.44
2022-10-26T23:45:41.913Z,98383.00
2022-10-26T23:55:44.607Z,98377.97
